Allenport, Pennsylvania
Current Conditions -  °F | °C
As of 4:53 AM on Monday 26 Jan 2015 (Local Time) from KAGC Reporting Station
Light Snow Light Snow  
Wind Chill: -3°   Ceiling: 400
Heat Index: -1°   Visibility: 2mi
Dew Point: -2°   Wind: 5mph
Humidity: 89%   Direction: 50°NE
Pressure: 29.66"   Gusts: NA
Location:  40.1°N, 79.85°W
Report Text: KAGC 260953Z AUTO 05004KT 2SM -SN BR OVC004 M01/M02 A2966 RMK AO2 SNB39 SLP059 P0000 T10061022 TSNO
Loading
Personal Weather Stations






























Interactive Weather Map New forecast layout! Learn more

10-Day Weather Forecast

Advertisements
Track Severe Weather on mobile